Time;durP1;ratioP1;P1;durP2;ratioP2;P2;SDS_P1;SDS_P2;PMS_P1;PMS_P2;Temp;Humidity;BMP_temperature;BMP_pressure;BME280_temperature;BME280_humidity;BME280_pressure;Samples;Min_cycle;Max_cycle;Signal;HPM_P1;HPM_P2
2022/07/23 00:01:19;;;;;;;10.60;3.78;;;27.70;51.80;;;;;;5074745;28;20196;-77
2022/07/23 00:03:55;;;;;;;9.88;4.13;;;27.70;51.80;;;;;;5077702;28;20191;-77
2022/07/23 00:06:24;;;;;;;11.35;3.40;;;27.70;51.90;;;;;;5073715;28;20222;-76
2022/07/23 00:08:53;;;;;;;10.85;4.00;;;27.60;51.80;;;;;;5077912;28;20189;-75
2022/07/23 00:11:22;;;;;;;16.92;4.20;;;27.60;51.90;;;;;;5083729;28;20194;-76
2022/07/23 00:13:53;;;;;;;10.98;3.75;;;27.60;51.90;;;;;;5077138;28;20190;-76
2022/07/23 00:16:21;;;;;;;13.93;3.47;;;27.50;51.90;;;;;;5081103;28;20575;-76
2022/07/23 00:18:49;;;;;;;13.70;3.67;;;27.50;51.80;;;;;;5074619;28;20273;-76
2022/07/23 00:21:18;;;;;;;9.05;3.58;;;27.50;51.90;;;;;;5074554;28;20240;-76
2022/07/23 00:23:46;;;;;;;7.45;3.60;;;27.50;51.90;;;;;;5072308;28;20193;-76
2022/07/23 00:26:15;;;;;;;10.10;3.78;;;27.40;51.80;;;;;;5076792;28;20286;-76
2022/07/23 00:28:43;;;;;;;10.00;3.50;;;27.40;51.80;;;;;;5078056;28;20224;-76
2022/07/23 00:31:13;;;;;;;9.18;3.30;;;27.40;51.70;;;;;;5077066;28;21004;-77
2022/07/23 00:33:41;;;;;;;10.93;3.45;;;27.40;51.80;;;;;;5075859;28;20197;-76
2022/07/23 00:36:10;;;;;;;6.10;3.28;;;27.30;51.70;;;;;;5072932;28;20189;-78
2022/07/23 00:38:38;;;;;;;11.40;3.25;;;27.30;51.80;;;;;;5077507;28;20186;-77
2022/07/23 00:41:07;;;;;;;8.95;3.20;;;27.30;51.70;;;;;;5076268;28;20438;-77
2022/07/23 00:43:35;;;;;;;8.10;3.22;;;27.20;52.20;;;;;;5080746;28;20288;-77
2022/07/23 00:46:04;;;;;;;7.50;2.92;;;27.20;52.10;;;;;;5070290;28;20228;-79
2022/07/23 00:48:34;;;;;;;6.10;2.97;;;27.10;52.10;;;;;;5067602;28;20695;-77
2022/07/23 00:51:02;;;;;;;7.45;3.55;;;27.10;52.20;;;;;;5073003;28;20483;-77
2022/07/23 00:53:31;;;;;;;14.95;3.72;;;27.10;52.20;;;;;;5071907;28;20194;-76
2022/07/23 00:56:00;;;;;;;8.75;2.95;;;27.00;52.90;;;;;;5076000;28;20200;-77
2022/07/23 00:58:29;;;;;;;5.22;2.80;;;27.00;52.20;;;;;;5068150;28;20269;-78
2022/07/23 01:00:57;;;;;;;6.60;2.95;;;27.00;52.20;;;;;;5074011;28;20283;-77
2022/07/23 01:03:26;;;;;;;7.50;3.00;;;26.90;52.30;;;;;;5079967;28;20237;-78
2022/07/23 01:05:55;;;;;;;9.43;3.90;;;26.90;52.50;;;;;;5076532;28;20348;-78
2022/07/23 01:08:24;;;;;;;6.88;2.85;;;26.80;52.60;;;;;;5077071;28;20217;-78
2022/07/23 01:10:53;;;;;;;5.35;2.63;;;26.80;52.70;;;;;;5078842;28;20647;-75
2022/07/23 01:13:22;;;;;;;10.35;3.42;;;26.80;52.70;;;;;;5078831;28;20193;-75
2022/07/23 01:15:50;;;;;;;9.75;3.08;;;26.70;52.70;;;;;;5074377;28;20194;-76
2022/07/23 01:18:18;;;;;;;9.35;2.85;;;26.70;52.80;;;;;;5074500;28;20191;-77
2022/07/23 01:20:47;;;;;;;8.75;3.25;;;26.70;52.90;;;;;;5072858;28;20194;-76
2022/07/23 01:23:16;;;;;;;9.40;3.05;;;26.70;53.10;;;;;;5071082;28;20202;-76
2022/07/23 01:25:50;;;;;;;6.90;3.15;;;26.60;53.10;;;;;;5077857;28;20203;-76
2022/07/23 01:28:18;;;;;;;9.55;3.15;;;26.60;53.20;;;;;;5082774;28;20266;-77
2022/07/23 01:30:47;;;;;;;5.30;2.40;;;26.60;53.30;;;;;;5077496;28;20220;-76
2022/07/23 01:33:16;;;;;;;7.00;2.45;;;26.60;53.30;;;;;;5078839;28;20198;-76
2022/07/23 01:35:44;;;;;;;10.18;2.67;;;26.60;53.30;;;;;;5074191;28;20194;-76
2022/07/23 01:38:12;;;;;;;8.75;2.90;;;26.60;53.30;;;;;;5069184;28;20682;-76
2022/07/23 01:40:42;;;;;;;9.30;2.60;;;26.60;53.40;;;;;;5074303;28;20196;-76
2022/07/23 01:43:12;;;;;;;8.43;2.15;;;26.60;53.50;;;;;;5083408;28;20190;-76
2022/07/23 01:45:43;;;;;;;5.28;2.60;;;26.60;53.60;;;;;;5081138;28;20228;-75
2022/07/23 01:48:12;;;;;;;10.10;2.92;;;26.60;53.50;;;;;;5084014;28;20221;-76
2022/07/23 01:50:40;;;;;;;10.15;2.67;;;26.50;53.50;;;;;;5078715;28;20766;-75
2022/07/23 01:53:09;;;;;;;8.70;2.97;;;26.50;53.40;;;;;;5077318;28;20547;-75
2022/07/23 01:55:37;;;;;;;6.20;2.90;;;26.50;53.50;;;;;;5081644;28;20186;-75
2022/07/23 01:58:07;;;;;;;6.82;2.78;;;26.50;53.50;;;;;;5077070;28;20243;-76
2022/07/23 02:00:35;;;;;;;9.52;2.88;;;26.40;53.50;;;;;;5085806;28;20837;-76
2022/07/23 02:03:04;;;;;;;8.32;3.08;;;26.40;53.70;;;;;;5081807;28;20251;-75
2022/07/23 02:05:37;;;;;;;6.43;3.00;;;26.40;53.80;;;;;;5078808;28;20202;-75
2022/07/23 02:08:06;;;;;;;7.10;2.63;;;26.30;53.90;;;;;;5077938;28;20209;-75
2022/07/23 02:10:34;;;;;;;5.40;2.60;;;26.30;53.90;;;;;;5080689;28;20639;-74
2022/07/23 02:13:03;;;;;;;5.43;3.33;;;26.20;54.00;;;;;;5072571;28;20276;-75
2022/07/23 02:15:33;;;;;;;5.63;2.30;;;26.20;54.10;;;;;;5081124;28;20182;-76
2022/07/23 02:18:01;;;;;;;7.35;2.47;;;26.20;54.20;;;;;;5090944;28;20212;-76
2022/07/23 02:20:30;;;;;;;7.13;2.60;;;26.20;54.20;;;;;;5081140;28;20207;-76
2022/07/23 02:22:58;;;;;;;10.13;2.80;;;26.10;54.20;;;;;;5079888;28;20208;-76
2022/07/23 02:25:27;;;;;;;6.03;2.60;;;26.10;54.50;;;;;;5079193;28;20289;-76
2022/07/23 02:27:55;;;;;;;10.55;2.70;;;26.10;54.70;;;;;;5082302;28;20225;-75
2022/07/23 02:30:24;;;;;;;9.50;3.25;;;26.00;54.60;;;;;;5076384;28;20198;-76
2022/07/23 02:32:53;;;;;;;6.40;2.67;;;26.10;54.70;;;;;;5080450;28;20193;-75
2022/07/23 02:35:22;;;;;;;4.88;2.78;;;26.00;54.80;;;;;;5086733;28;20194;-76
2022/07/23 02:37:50;;;;;;;7.05;2.70;;;26.00;55.10;;;;;;5067745;28;20193;-75
2022/07/23 02:40:19;;;;;;;10.73;2.67;;;25.90;55.00;;;;;;5080644;28;20209;-75
2022/07/23 02:42:48;;;;;;;10.70;2.83;;;25.90;55.20;;;;;;5087177;28;20588;-74
2022/07/23 02:45:16;;;;;;;6.03;2.35;;;25.90;55.30;;;;;;5075454;28;20550;-75
2022/07/23 02:47:45;;;;;;;4.25;2.67;;;25.90;55.40;;;;;;5079456;28;20186;-75
2022/07/23 02:50:14;;;;;;;10.80;3.20;;;25.90;55.60;;;;;;5071277;28;20186;-75
2022/07/23 02:52:43;;;;;;;8.52;2.28;;;25.90;55.50;;;;;;5081893;28;20190;-75
2022/07/23 02:55:11;;;;;;;7.35;2.78;;;25.90;55.50;;;;;;5079860;28;20193;-75
2022/07/23 02:57:40;;;;;;;6.55;2.25;;;25.90;55.60;;;;;;5078182;28;20204;-75
2022/07/23 03:00:10;;;;;;;8.80;2.75;;;25.90;55.50;;;;;;5075171;28;20225;-75
2022/07/23 03:02:38;;;;;;;5.97;2.58;;;25.90;55.60;;;;;;5077679;28;20201;-75
2022/07/23 03:05:07;;;;;;;4.57;2.70;;;25.90;55.60;;;;;;5081369;28;20190;-75
2022/07/23 03:07:37;;;;;;;6.63;3.00;;;25.90;55.60;;;;;;5089528;28;20232;-75
2022/07/23 03:10:06;;;;;;;8.77;2.70;;;25.90;55.70;;;;;;5073793;28;20691;-75
2022/07/23 03:12:35;;;;;;;8.55;2.53;;;25.90;55.60;;;;;;5068565;28;20190;-74
2022/07/23 03:15:03;;;;;;;10.90;3.20;;;25.90;55.60;;;;;;5079508;28;20193;-75
2022/07/23 03:17:32;;;;;;;9.98;2.90;;;25.90;55.70;;;;;;5070310;28;20206;-75
2022/07/23 03:20:00;;;;;;;6.75;2.67;;;25.90;55.70;;;;;;5080221;28;20197;-75
2022/07/23 03:22:29;;;;;;;6.18;2.95;;;25.90;55.70;;;;;;5079502;28;20193;-75
2022/07/23 03:24:58;;;;;;;8.82;2.97;;;26.00;56.30;;;;;;5077181;28;20193;-75
2022/07/23 03:27:29;;;;;;;4.75;2.78;;;25.90;55.70;;;;;;5065510;28;20199;-75
2022/07/23 03:30:00;;;;;;;11.38;3.05;;;25.90;55.80;;;;;;5071019;28;20222;-75
2022/07/23 03:32:29;;;;;;;13.70;2.92;;;25.90;55.70;;;;;;5081587;28;20204;-75
2022/07/23 03:34:57;;;;;;;5.72;3.00;;;25.80;55.70;;;;;;5081405;28;20249;-75
2022/07/23 03:37:26;;;;;;;8.80;2.67;;;25.90;55.70;;;;;;5075282;28;20190;-75
2022/07/23 03:39:55;;;;;;;5.03;2.97;;;25.80;55.70;;;;;;5080817;28;20200;-75
2022/07/23 03:42:25;;;;;;;7.88;2.88;;;25.80;55.90;;;;;;5080058;28;20186;-77
2022/07/23 03:44:53;;;;;;;13.57;3.40;;;25.80;55.90;;;;;;5084692;28;20204;-79
2022/07/23 03:47:22;;;;;;;7.35;2.88;;;25.80;56.10;;;;;;5079992;28;20200;-75
2022/07/23 03:49:51;;;;;;;7.80;2.90;;;25.80;56.20;;;;;;5079882;28;20208;-75
2022/07/23 03:52:19;;;;;;;10.10;3.00;;;25.80;56.20;;;;;;5077357;28;20190;-75
2022/07/23 03:54:48;;;;;;;5.75;2.83;;;25.80;56.30;;;;;;5082082;28;20560;-75
2022/07/23 03:57:16;;;;;;;13.68;3.45;;;25.80;56.20;;;;;;5072236;28;20193;-75
2022/07/23 03:59:46;;;;;;;7.35;3.17;;;25.80;56.30;;;;;;5077382;28;20269;-75
2022/07/23 04:02:14;;;;;;;7.25;3.05;;;25.80;56.20;;;;;;5081076;28;20643;-75
2022/07/23 04:04:43;;;;;;;8.48;3.30;;;25.80;56.40;;;;;;5078368;28;20190;-75
2022/07/23 04:07:11;;;;;;;5.82;3.38;;;25.80;56.40;;;;;;5071949;28;20222;-75
2022/07/23 04:09:41;;;;;;;7.50;3.78;;;25.90;56.50;;;;;;5081687;28;20242;-74
2022/07/23 04:12:13;;;;;;;11.05;3.58;;;25.90;56.60;;;;;;5080835;28;20189;-75
2022/07/23 04:14:42;;;;;;;8.18;3.30;;;25.90;56.50;;;;;;5083440;28;20680;-74
2022/07/23 04:17:12;;;;;;;11.07;2.88;;;25.90;56.60;;;;;;5078081;28;20193;-74
2022/07/23 04:19:43;;;;;;;7.03;3.13;;;26.00;56.70;;;;;;5089143;28;20197;-75
2022/07/23 04:22:11;;;;;;;8.48;3.10;;;26.00;56.70;;;;;;5092139;28;20204;-75
2022/07/23 04:24:40;;;;;;;11.05;2.85;;;26.00;56.80;;;;;;5078904;28;20582;-75
2022/07/23 04:27:08;;;;;;;6.00;2.75;;;26.10;57.40;;;;;;5080759;28;20189;-75
2022/07/23 04:29:37;;;;;;;14.90;3.65;;;26.10;56.80;;;;;;5079818;28;20219;-76
2022/07/23 04:32:06;;;;;;;14.57;5.82;;;26.10;56.80;;;;;;5068853;28;20224;-75
2022/07/23 04:34:36;;;;;;;12.88;5.90;;;26.20;56.90;;;;;;5071361;28;20194;-76
2022/07/23 04:37:04;;;;;;;13.18;4.18;;;26.30;57.00;;;;;;5070902;28;20198;-74
2022/07/23 04:39:33;;;;;;;11.20;3.95;;;26.30;57.00;;;;;;5080248;28;20185;-75
2022/07/23 04:42:01;;;;;;;8.25;2.90;;;26.40;57.20;;;;;;5077603;28;20200;-75
2022/07/23 04:44:30;;;;;;;6.45;2.97;;;26.50;57.10;;;;;;5076256;28;20201;-76
2022/07/23 04:46:58;;;;;;;7.85;2.75;;;26.50;57.10;;;;;;5077454;28;20247;-76
2022/07/23 04:50:21;;;;;;;8.43;2.97;;;26.60;57.10;;;;;;5082150;28;20218;-76
2022/07/23 04:52:51;;;;;;;7.68;2.50;;;26.60;57.10;;;;;;5026763;28;20290;-76
2022/07/23 04:55:19;;;;;;;11.18;3.15;;;26.70;57.00;;;;;;5058778;28;20817;-76
2022/07/23 04:57:47;;;;;;;10.90;3.30;;;26.80;56.90;;;;;;5061669;28;20198;-75
2022/07/23 05:00:17;;;;;;;7.70;3.05;;;26.90;56.80;;;;;;5055286;28;20202;-76
2022/07/23 05:02:45;;;;;;;7.22;3.25;;;26.90;56.60;;;;;;5061995;28;20186;-75
2022/07/23 05:05:13;;;;;;;5.68;2.90;;;27.00;56.50;;;;;;5051448;28;20212;-76
2022/07/23 05:07:42;;;;;;;5.97;3.10;;;27.10;56.40;;;;;;5063126;28;20241;-77
2022/07/23 05:10:12;;;;;;;6.78;3.03;;;27.10;56.30;;;;;;5059001;28;20218;-75
2022/07/23 05:12:40;;;;;;;5.68;2.92;;;27.20;56.30;;;;;;5055661;28;20190;-76
2022/07/23 05:15:09;;;;;;;6.85;3.17;;;27.20;56.10;;;;;;5060417;28;20663;-76
2022/07/23 05:17:37;;;;;;;8.73;3.20;;;27.30;56.10;;;;;;5056303;28;20229;-76
2022/07/23 05:20:07;;;;;;;6.72;3.10;;;27.40;56.00;;;;;;5056786;28;20195;-75
2022/07/23 05:22:35;;;;;;;6.28;3.00;;;27.50;55.80;;;;;;5072444;28;20198;-76
2022/07/23 05:25:04;;;;;;;5.30;2.55;;;27.60;55.90;;;;;;5057628;28;20186;-76
2022/07/23 05:27:34;;;;;;;3.55;2.47;;;27.60;55.70;;;;;;5062186;28;20186;-75
2022/07/23 05:30:03;;;;;;;5.68;2.80;;;27.70;55.60;;;;;;5075469;28;20217;-75
2022/07/23 05:32:32;;;;;;;5.80;3.10;;;27.70;55.30;;;;;;5055922;28;20197;-73
2022/07/23 05:35:01;;;;;;;6.10;3.28;;;27.80;55.20;;;;;;5059616;28;20232;-75
2022/07/23 05:37:30;;;;;;;6.35;2.15;;;27.80;55.10;;;;;;5068614;28;20202;-74
2022/07/23 05:40:02;;;;;;;4.60;2.67;;;27.90;55.00;;;;;;5062235;28;20599;-74
2022/07/23 05:42:30;;;;;;;7.28;2.92;;;28.00;55.10;;;;;;5063798;28;20186;-74
2022/07/23 05:45:00;;;;;;;9.18;3.72;;;28.10;54.80;;;;;;5064697;28;20205;-75
2022/07/23 05:47:29;;;;;;;8.43;3.30;;;28.10;54.70;;;;;;5061766;28;20759;-75
2022/07/23 05:49:57;;;;;;;5.35;2.30;;;28.20;54.60;;;;;;5060972;28;20222;-74
2022/07/23 05:52:31;;;;;;;6.80;3.08;;;28.20;54.50;;;;;;5074383;28;20230;-74
2022/07/23 05:54:59;;;;;;;8.68;2.83;;;28.30;54.50;;;;;;5053658;28;20203;-75
2022/07/23 05:57:27;;;;;;;5.05;2.83;;;28.40;54.40;;;;;;5059313;28;20293;-75
2022/07/23 05:59:56;;;;;;;5.75;2.78;;;28.50;54.40;;;;;;5058454;28;20205;-74
2022/07/23 06:02:26;;;;;;;10.82;2.70;;;28.60;54.20;;;;;;5061835;28;20592;-75
2022/07/23 06:04:54;;;;;;;6.13;2.83;;;28.60;54.00;;;;;;5059363;28;20194;-75
2022/07/23 06:15:05;;;;;;;4.00;2.83;;;28.90;53.70;;;;;;5060553;28;20936;-75
2022/07/23 06:17:40;;;;;;;8.48;3.28;;;29.00;53.70;;;;;;5065536;28;20244;-75
2022/07/23 06:20:10;;;;;;;7.10;2.65;;;29.10;53.60;;;;;;5051697;28;20195;-75
2022/07/23 06:22:38;;;;;;;6.78;2.70;;;29.10;53.60;;;;;;5060390;28;20190;-74
2022/07/23 06:25:08;;;;;;;9.68;3.00;;;29.20;53.30;;;;;;5057967;28;20206;-75
2022/07/23 06:27:47;;;;;;;9.45;2.80;;;29.30;53.30;;;;;;5060022;28;20186;-75
2022/07/23 06:30:17;;;;;;;12.02;3.60;;;29.30;53.20;;;;;;5048731;28;20930;-74
2022/07/23 06:32:47;;;;;;;10.90;3.13;;;29.40;53.00;;;;;;5060274;28;20194;-74
2022/07/23 06:35:16;;;;;;;8.18;2.67;;;29.50;52.90;;;;;;5061326;28;20186;-75
2022/07/23 06:37:46;;;;;;;8.55;3.35;;;29.60;52.80;;;;;;5068829;28;20256;-76
2022/07/23 06:40:16;;;;;;;7.70;2.85;;;29.70;52.70;;;;;;5049057;28;20294;-74
2022/07/23 06:42:44;;;;;;;12.52;3.08;;;29.70;52.60;;;;;;5055952;28;20190;-74
2022/07/23 06:45:13;;;;;;;12.93;3.33;;;29.80;52.30;;;;;;5068266;28;20195;-74
2022/07/23 06:47:41;;;;;;;8.73;3.20;;;29.90;52.10;;;;;;5077600;28;20190;-74
2022/07/23 06:50:11;;;;;;;12.38;3.50;;;29.90;51.90;;;;;;5064780;28;20209;-75
2022/07/23 06:52:40;;;;;;;14.77;3.10;;;30.00;51.80;;;;;;5078500;28;20288;-75
2022/07/23 06:55:10;;;;;;;9.65;3.28;;;30.00;51.70;;;;;;5054383;28;20843;-75
2022/07/23 06:57:39;;;;;;;10.95;2.95;;;30.10;51.80;;;;;;5072415;28;20193;-75
2022/07/23 07:00:08;;;;;;;14.35;3.58;;;30.20;51.50;;;;;;5066463;28;20206;-76
2022/07/23 07:02:37;;;;;;;13.63;3.35;;;30.30;51.50;;;;;;5072208;28;20213;-75
2022/07/23 07:05:06;;;;;;;8.50;3.08;;;30.30;51.20;;;;;;5069783;28;20190;-74
2022/07/23 07:07:36;;;;;;;8.80;3.38;;;30.40;51.30;;;;;;5075497;28;20228;-76
2022/07/23 07:10:05;;;;;;;6.28;2.80;;;30.40;51.30;;;;;;5073218;28;20187;-75
2022/07/23 07:12:39;;;;;;;9.45;2.60;;;30.50;51.40;;;;;;5058611;28;20683;-75
2022/07/23 07:15:08;;;;;;;4.65;3.08;;;30.60;51.30;;;;;;5065542;28;20197;-76
2022/07/23 07:17:37;;;;;;;6.43;3.58;;;30.70;51.00;;;;;;5061455;28;20197;-77
2022/07/23 07:20:06;;;;;;;8.65;3.30;;;30.70;50.70;;;;;;5068180;28;20194;-76
2022/07/23 07:22:36;;;;;;;11.30;3.15;;;30.80;50.80;;;;;;5056655;28;20227;-75
2022/07/23 07:25:05;;;;;;;5.93;3.15;;;30.90;50.50;;;;;;5060998;28;20229;-75
2022/07/23 07:27:34;;;;;;;6.93;3.38;;;30.90;50.50;;;;;;5065486;28;20187;-76
2022/07/23 07:30:02;;;;;;;4.47;2.78;;;31.00;50.30;;;;;;5049612;28;20202;-75
2022/07/23 07:32:32;;;;;;;6.50;2.80;;;31.10;50.20;;;;;;5051487;28;20198;-76
2022/07/23 07:35:20;;;;;;;7.65;3.30;;;31.10;49.90;;;;;;5050344;28;20198;-74
2022/07/23 07:37:50;;;;;;;5.43;3.10;;;31.20;49.40;;;;;;5056772;28;20198;-74
2022/07/23 07:40:19;;;;;;;9.68;3.65;;;31.20;49.30;;;;;;5060446;28;20772;-75
2022/07/23 07:42:47;;;;;;;8.23;2.90;;;31.30;49.30;;;;;;5060121;28;20186;-74
2022/07/23 07:45:17;;;;;;;9.93;3.33;;;31.30;49.40;;;;;;5064217;28;20940;-74
2022/07/23 07:47:45;;;;;;;5.05;3.13;;;31.40;49.20;;;;;;5055609;28;20191;-75
2022/07/23 07:50:13;;;;;;;4.88;2.80;;;31.40;48.80;;;;;;5062140;28;20662;-74
2022/07/23 07:52:42;;;;;;;6.65;2.78;;;31.50;49.00;;;;;;5058359;28;20283;-75
2022/07/23 07:55:12;;;;;;;5.90;3.22;;;31.50;48.90;;;;;;5062090;28;20202;-74
2022/07/23 07:57:41;;;;;;;5.60;3.05;;;31.60;48.50;;;;;;5062335;28;20232;-75
2022/07/23 08:00:17;;;;;;;9.13;2.88;;;31.70;48.20;;;;;;5049096;28;20201;-75
2022/07/23 08:02:48;;;;;;;6.65;3.05;;;31.70;48.10;;;;;;5047303;28;20198;-75
2022/07/23 08:05:20;;;;;;;7.72;2.95;;;31.80;48.30;;;;;;5069068;28;20214;-75
2022/07/23 08:07:55;;;;;;;9.00;3.00;;;31.80;48.10;;;;;;5060833;28;20186;-74
2022/07/23 08:10:26;;;;;;;7.28;2.85;;;31.80;48.00;;;;;;5062013;28;20230;-75
2022/07/23 08:12:57;;;;;;;7.43;3.05;;;31.90;47.80;;;;;;5059517;28;22223;-76
2022/07/23 08:15:27;;;;;;;9.40;3.42;;;32.00;47.70;;;;;;5053325;28;20766;-76
2022/07/23 08:17:56;;;;;;;5.30;3.00;;;32.00;47.60;;;;;;5044545;28;20198;-75
2022/07/23 08:20:26;;;;;;;5.15;2.90;;;32.10;47.10;;;;;;5058405;28;20198;-75
2022/07/23 08:22:58;;;;;;;6.07;2.95;;;32.10;47.20;;;;;;5058436;28;20703;-75
2022/07/23 08:25:31;;;;;;;8.88;2.67;;;32.20;47.20;;;;;;5051431;28;20222;-75
2022/07/23 08:28:00;;;;;;;8.57;3.20;;;32.20;46.90;;;;;;5059119;28;20200;-75
2022/07/23 08:30:29;;;;;;;8.27;2.95;;;32.20;46.90;;;;;;5061184;28;20195;-76
2022/07/23 08:33:00;;;;;;;5.50;2.80;;;32.30;46.70;;;;;;5060886;28;20738;-77
2022/07/23 08:35:30;;;;;;;7.22;3.13;;;32.30;46.70;;;;;;5057059;28;20190;-77
2022/07/23 08:38:00;;;;;;;9.68;2.95;;;32.40;46.40;;;;;;5052565;28;20221;-75
2022/07/23 08:40:31;;;;;;;5.47;3.20;;;32.40;46.50;;;;;;5051958;28;20418;-75
2022/07/23 08:43:00;;;;;;;9.68;3.17;;;32.50;46.30;;;;;;5057579;28;20194;-75
2022/07/23 08:45:29;;;;;;;5.28;3.08;;;32.50;45.60;;;;;;5059270;28;20198;-77
2022/07/23 08:47:59;;;;;;;6.13;2.53;;;32.60;46.00;;;;;;5046489;28;20202;-76
2022/07/23 08:50:30;;;;;;;6.80;3.35;;;32.60;46.30;;;;;;5059144;28;20186;-75
2022/07/23 08:53:02;;;;;;;5.03;2.67;;;32.70;46.40;;;;;;5065613;28;20232;-75
2022/07/23 08:55:32;;;;;;;6.35;2.92;;;32.70;46.30;;;;;;5049331;28;20229;-75
2022/07/23 08:58:01;;;;;;;11.73;3.28;;;32.80;46.10;;;;;;5056565;28;20198;-75
2022/07/23 09:00:29;;;;;;;8.32;2.80;;;32.90;46.20;;;;;;5050576;28;20190;-76
2022/07/23 09:02:58;;;;;;;7.28;3.38;;;32.90;46.00;;;;;;5060026;28;20201;-75
2022/07/23 09:05:27;;;;;;;9.70;3.42;;;32.90;45.80;;;;;;5045951;28;20219;-75
2022/07/23 09:08:12;;;;;;;6.82;2.78;;;33.00;46.00;;;;;;5026519;28;20195;-75
2022/07/23 09:10:48;;;;;;;7.90;3.47;;;33.10;45.80;;;;;;5038225;28;20198;-74
2022/07/23 09:13:28;;;;;;;6.43;3.50;;;33.10;44.90;;;;;;5030866;28;20227;-76
2022/07/23 09:15:58;;;;;;;5.40;2.85;;;33.10;44.90;;;;;;5041686;28;20614;-75
2022/07/23 09:18:37;;;;;;;12.90;3.08;;;33.20;45.20;;;;;;5034234;28;20675;-75
2022/07/23 09:21:17;;;;;;;6.95;2.83;;;33.30;45.10;;;;;;5039102;28;20183;-75
2022/07/23 09:23:48;;;;;;;9.43;4.00;;;33.30;45.50;;;;;;5033659;28;20902;-76
2022/07/23 09:26:33;;;;;;;20.08;17.95;;;33.30;44.80;;;;;;5032932;28;20824;-75
2022/07/23 09:29:05;;;;;;;68.45;46.10;;;33.40;44.40;;;;;;5035409;28;20195;-75
2022/07/23 09:31:42;;;;;;;149.95;54.53;;;33.40;44.00;;;;;;5034861;28;20258;-74
2022/07/23 09:34:14;;;;;;;17.90;9.20;;;33.50;44.20;;;;;;5036225;28;20191;-75
2022/07/23 09:36:43;;;;;;;8.00;3.53;;;33.60;44.00;;;;;;5031155;28;20195;-75
2022/07/23 09:39:13;;;;;;;9.35;3.13;;;33.60;43.90;;;;;;5041855;28;20206;-76
2022/07/23 09:41:45;;;;;;;9.73;3.58;;;33.60;43.50;;;;;;5028402;28;20196;-74
2022/07/23 09:44:17;;;;;;;5.88;2.83;;;33.70;43.70;;;;;;5030098;28;20191;-75
2022/07/23 09:46:46;;;;;;;12.30;9.05;;;33.80;44.00;;;;;;5037051;28;20856;-75
2022/07/23 09:49:17;;;;;;;120.85;76.47;;;33.80;44.00;;;;;;5034696;28;20214;-76
2022/07/23 09:51:57;;;;;;;80.82;47.33;;;33.80;43.70;;;;;;5035926;28;20210;-77
2022/07/23 09:54:30;;;;;;;22.73;15.88;;;33.90;43.50;;;;;;5023283;28;20196;-75
2022/07/23 09:57:02;;;;;;;11.73;6.85;;;34.00;43.50;;;;;;5033931;28;20195;-75
2022/07/23 09:59:33;;;;;;;13.88;9.18;;;34.00;43.80;;;;;;5040850;28;20219;-75
2022/07/23 10:02:04;;;;;;;11.13;4.00;;;34.10;43.60;;;;;;5029278;28;20755;-74
2022/07/23 10:04:33;;;;;;;9.13;3.50;;;34.20;43.80;;;;;;5035448;28;20943;-77
2022/07/23 10:07:06;;;;;;;9.45;3.38;;;34.20;43.60;;;;;;4998431;28;20628;-76
2022/07/23 10:09:36;;;;;;;5.32;2.88;;;34.30;43.60;;;;;;4994497;28;20196;-77
2022/07/23 10:12:18;;;;;;;5.72;2.65;;;34.40;43.60;;;;;;4987913;28;20702;-75
2022/07/23 10:14:47;;;;;;;8.15;3.13;;;34.40;43.60;;;;;;4997049;28;20275;-74
2022/07/23 10:17:16;;;;;;;6.97;2.70;;;34.50;43.20;;;;;;4991184;28;20193;-76
2022/07/23 10:19:45;;;;;;;4.22;2.80;;;34.60;43.20;;;;;;4991051;28;20193;-75
2022/07/23 10:22:20;;;;;;;5.85;2.80;;;34.70;43.10;;;;;;4994236;28;20193;-76
2022/07/23 10:24:56;;;;;;;9.60;3.20;;;34.70;42.70;;;;;;5006231;28;20199;-75
2022/07/23 10:27:51;;;;;;;12.27;2.60;;;34.80;42.80;;;;;;5001322;28;20206;-75
2022/07/23 10:30:29;;;;;;;6.82;3.20;;;34.80;42.80;;;;;;4994611;28;20856;-76
2022/07/23 10:33:15;;;;;;;8.55;3.70;;;34.90;42.80;;;;;;4995780;28;20303;-76
2022/07/23 10:35:52;;;;;;;4.90;3.08;;;35.00;42.80;;;;;;4996713;28;20204;-77
2022/07/23 10:38:25;;;;;;;8.90;3.60;;;35.00;41.80;;;;;;4999897;28;20193;-77
2022/07/23 10:40:58;;;;;;;7.35;2.97;;;35.00;40.70;;;;;;4994177;28;20205;-76
2022/07/23 10:43:29;;;;;;;7.18;2.70;;;35.00;40.70;;;;;;4997443;28;20673;-77
2022/07/23 10:46:27;;;;;;;6.03;2.88;;;35.10;40.90;;;;;;4989253;28;20414;-78
2022/07/23 10:49:24;;;;;;;6.80;3.30;;;35.20;41.30;;;;;;5001905;28;20264;-76
2022/07/23 10:52:23;;;;;;;7.80;3.38;;;35.30;41.60;;;;;;4997016;28;20193;-76
2022/07/23 10:54:54;;;;;;;6.15;3.17;;;35.30;41.60;;;;;;4990017;28;20199;-76
2022/07/23 10:57:23;;;;;;;7.45;3.25;;;35.40;41.40;;;;;;4998727;28;20193;-77
2022/07/23 11:00:16;;;;;;;6.20;2.58;;;35.50;41.50;;;;;;4996523;28;20185;-78
2022/07/23 11:02:46;;;;;;;4.38;2.85;;;35.60;41.30;;;;;;4994540;28;20208;-76
2022/07/23 11:05:17;;;;;;;6.13;2.88;;;35.60;41.40;;;;;;5017262;28;20226;-78
2022/07/23 11:08:16;;;;;;;10.20;2.95;;;35.70;41.10;;;;;;5043194;28;20196;-76
2022/07/23 11:10:50;;;;;;;5.55;3.15;;;35.70;40.50;;;;;;5047762;28;20716;-78
2022/07/23 11:13:46;;;;;;;5.88;3.10;;;35.70;40.20;;;;;;5045592;28;20745;-78
2022/07/23 11:16:25;;;;;;;10.63;3.10;;;35.70;40.40;;;;;;5037753;28;20528;-77
2022/07/23 11:19:04;;;;;;;6.38;3.00;;;35.80;40.70;;;;;;5042765;28;20261;-77
2022/07/23 11:21:48;;;;;;;5.68;2.80;;;35.80;39.70;;;;;;5026441;28;20186;-75
2022/07/23 11:24:22;;;;;;;4.70;2.65;;;35.90;39.60;;;;;;5034143;28;20656;-76
2022/07/23 11:27:06;;;;;;;5.75;2.90;;;35.90;39.80;;;;;;5041781;28;20202;-77
2022/07/23 11:29:51;;;;;;;8.40;3.70;;;36.00;39.90;;;;;;5038482;28;20218;-76
2022/07/23 11:32:36;;;;;;;7.63;2.90;;;36.10;40.00;;;;;;5039094;28;20191;-77
2022/07/23 11:35:27;;;;;;;10.73;3.45;;;36.10;40.10;;;;;;5040814;28;20190;-76
2022/07/23 11:38:05;;;;;;;5.40;2.80;;;36.20;40.10;;;;;;5041994;28;20198;-77
2022/07/23 11:40:34;;;;;;;8.73;3.33;;;36.20;39.80;;;;;;5040373;28;20198;-78
2022/07/23 11:43:04;;;;;;;9.63;3.83;;;36.20;40.50;;;;;;5033630;28;20202;-75
2022/07/23 11:45:35;;;;;;;10.13;3.35;;;36.30;39.20;;;;;;5042613;28;20193;-75
2022/07/23 11:48:06;;;;;;;6.18;3.03;;;36.30;38.70;;;;;;5030283;28;20200;-75
2022/07/23 11:50:35;;;;;;;6.35;2.90;;;36.30;38.80;;;;;;5036674;28;20575;-75
2022/07/23 11:53:04;;;;;;;6.80;3.47;;;36.40;39.20;;;;;;5041582;28;20225;-75
2022/07/23 11:55:33;;;;;;;6.38;3.13;;;36.40;39.10;;;;;;5032628;28;20198;-76
2022/07/23 11:58:01;;;;;;;9.13;3.78;;;36.40;39.10;;;;;;5034833;28;20202;-76
2022/07/23 12:00:32;;;;;;;6.43;3.28;;;36.50;39.00;;;;;;5031304;28;20855;-76
2022/07/23 12:03:09;;;;;;;5.95;3.50;;;36.50;38.70;;;;;;5038925;28;20272;-76
2022/07/23 12:05:39;;;;;;;9.45;3.55;;;36.60;38.40;;;;;;5030531;28;20231;-76
2022/07/23 12:08:09;;;;;;;6.78;3.60;;;36.60;37.90;;;;;;5028402;28;20659;-75
2022/07/23 12:10:41;;;;;;;7.47;3.40;;;36.60;38.20;;;;;;5041452;28;20596;-76
2022/07/23 12:13:11;;;;;;;5.93;3.20;;;36.60;38.00;;;;;;5038083;28;20217;-75
2022/07/23 12:15:42;;;;;;;4.55;3.13;;;36.60;37.70;;;;;;5042461;28;20214;-76
2022/07/23 12:18:14;;;;;;;6.15;3.35;;;36.70;37.70;;;;;;5031313;28;20204;-77
2022/07/23 12:20:44;;;;;;;8.02;3.38;;;36.70;37.60;;;;;;5039315;28;20187;-75
2022/07/23 12:23:14;;;;;;;5.95;3.00;;;36.80;37.50;;;;;;5027869;28;20202;-77
2022/07/23 12:25:51;;;;;;;11.32;4.05;;;36.80;37.60;;;;;;5032502;28;20719;-76
2022/07/23 12:28:21;;;;;;;9.27;3.20;;;36.80;37.60;;;;;;5039042;28;20214;-75
2022/07/23 12:30:51;;;;;;;7.85;3.03;;;36.80;37.40;;;;;;5042302;28;20202;-77
2022/07/23 12:33:25;;;;;;;7.35;2.70;;;36.90;37.50;;;;;;5038946;28;20211;-76
2022/07/23 12:35:55;;;;;;;7.80;3.67;;;36.90;37.40;;;;;;5030540;28;20558;-76
2022/07/23 12:38:25;;;;;;;3.97;2.72;;;36.90;37.00;;;;;;5029963;28;20194;-76
2022/07/23 12:40:55;;;;;;;6.97;3.53;;;37.00;37.10;;;;;;5037596;28;20656;-75
2022/07/23 12:43:25;;;;;;;12.75;3.40;;;37.00;37.20;;;;;;5038941;28;20191;-75
2022/07/23 12:45:56;;;;;;;5.25;3.40;;;37.00;37.10;;;;;;5036704;28;20203;-76
2022/07/23 12:48:28;;;;;;;8.68;3.90;;;37.10;37.20;;;;;;5042900;28;20195;-75
2022/07/23 12:51:01;;;;;;;9.50;3.10;;;37.10;37.30;;;;;;5038441;28;20195;-76
2022/07/23 12:53:31;;;;;;;9.20;3.67;;;37.10;37.40;;;;;;5051955;28;20697;-77
2022/07/23 12:56:03;;;;;;;8.02;3.28;;;37.10;37.30;;;;;;5038183;28;20202;-76
2022/07/23 12:58:45;;;;;;;7.05;3.20;;;37.10;37.40;;;;;;5031287;28;20203;-75
2022/07/23 13:01:27;;;;;;;5.90;3.00;;;37.10;37.20;;;;;;5037889;28;20241;-75
2022/07/23 13:04:05;;;;;;;12.05;4.13;;;37.20;37.10;;;;;;5040585;28;20196;-76
2022/07/23 13:06:55;;;;;;;8.93;3.47;;;37.20;37.00;;;;;;5025155;28;20224;-75
2022/07/23 13:09:29;;;;;;;5.40;3.45;;;37.20;36.90;;;;;;5040003;28;20237;-75
2022/07/23 13:12:01;;;;;;;6.20;3.65;;;37.20;37.10;;;;;;5035465;28;20199;-75
2022/07/23 13:14:30;;;;;;;6.10;3.55;;;37.20;37.30;;;;;;5030416;28;20223;-75